x

Cape Lookout, Nc (clkn7) Weather Station

8:00pm - Wed 27th May 2015 All times are EDT. -4 hours from GMT.

  • Wind
    16mph, 17mph gusts
  • Air Temp 74°f
  • Sea Pressure 1023.5mb
  • Cape Lookout, Nc
  • Cape Lookout, Nc

More Historic Weather Station data

Upgrade to MSW Pro to gain access to the past 30 days of data for over 8000 Wavebouys and Weather Stations around the globe.

Join Pro

Comparision Forecast

View Surf forecast
   
Wed 05/27 8:00pm 16 17 mph 1023.5mb 74f
7:00pm 15 16 mph 1023.6mb 74f
6:00pm 15 17 mph 1023.6mb 74f
5:00pm 16 18 mph 1023.8mb 74f
4:00pm 15 17 mph 1024.4mb 74f
3:00pm 16 17 mph 1024.8mb 74f
2:00pm 15 16 mph 1025.4mb 74f
1:00pm 15 16 mph 1025.5mb 74f
12:00pm 9 10 mph 1025.7mb 75f
11:00am 9 10 mph 1025.8mb 75f
10:00am 9 10 mph 1025.3mb 74f
9:00am 8 9 mph 1025.3mb 74f
8:00am 8
mph
1024.7mb 75f
7:00am 5 6 mph 1024.7mb 73f
6:00am 6 7 mph 1024.5mb 74f
5:00am 5 6 mph 1024.2mb 73f
4:00am 6 7 mph 1024.1mb 73f
3:00am 11 13 mph 1024.2mb 74f
2:00am 14 16 mph 1024.7mb 74f
1:00am 15 17 mph 1025mb 74f
12:00am 16 18 mph 1025.5mb 74f
Tue 05/26 11:00pm 16 18 mph 1025.7mb 74f
10:00pm 15 17 mph 1025.5mb 74f
9:00pm 16 17 mph 1025.1mb 74f
8:00pm 17 18 mph 1024.7mb 74f
7:00pm 17 18 mph 1024.6mb 74f
6:00pm 16 17 mph 1024.6mb 74f
5:00pm 16 17 mph 1025.2mb 75f
4:00pm 15 16 mph 1025.7mb 75f
3:00pm 16 18 mph 1025.8mb 75f
2:00pm 15 16 mph 1026.3mb 75f
1:00pm 11 13 mph 1026.9mb 75f
12:00pm 11 13 mph 1026.9mb 75f
11:00am 11 14 mph 1027mb 75f
10:00am 9 11 mph 1026.9mb 75f
9:00am 10 11 mph 1027mb 75f
8:00am 11 13 mph 1026.4mb 74f
7:00am 13 14 mph 1025.9mb 74f
6:00am 13 15 mph 1025.4mb 74f
5:00am 14 15 mph 1025.1mb 74f
4:00am 13 14 mph 1025.1mb 74f
3:00am 16 17 mph 1025.1mb 73f
2:00am 14 16 mph 1025.4mb 73f
1:00am 14 15 mph 1026mb 74f
12:00am 11 13 mph 1026.5mb 74f
Mon 05/25 11:00pm 13 14 mph 1026.7mb 74f
10:00pm 15 16 mph 1026.4mb 74f
9:00pm 9
mph
1026.2mb 74f
8:00pm 9 10 mph 1026.1mb 74f
7:00pm 8 10 mph 1026.2mb 74f
6:00pm 10 11 mph 1026.1mb 74f
5:00pm 10 13 mph 1026.2mb 74f
4:00pm 10 13 mph 1026.5mb 74f
3:00pm 11
mph
1026.8mb 74f
2:00pm 8 9 mph 1027.4mb 74f
1:00pm 9 10 mph 1027.8mb 74f
12:00pm 9
mph
1028mb 73f
11:00am 9 10 mph 1028mb 73f
10:00am 8 9 mph 1028.2mb 73f
9:00am 8 9 mph 1027.9mb 73f
8:00am 8 9 mph 1027.8mb 73f
7:00am 8 9 mph 1027.4mb 72f
6:00am 9 10 mph 1027mb 71f
5:00am 9 10 mph 1026.8mb 72f
4:00am 8 9 mph 1027mb 72f
3:00am 8 9 mph 1026.9mb 72f
2:00am 8 10 mph 1027mb 72f
1:00am 11 13 mph 1027.4mb 73f
12:00am 11 13 mph 1027.6mb 73f
Sun 05/24 11:00pm 10 11 mph 1027.8mb 73f
10:00pm 11 13 mph 1027.6mb 73f
9:00pm 10 11 mph 1027.2mb 73f
8:00pm 10 11 mph 1027.1mb 73f
7:00pm 8 9 mph 1027.2mb 74f
6:00pm 9 10 mph 1027.4mb 74f
5:00pm 9
mph
1028.1mb 74f
4:00pm 7 9 mph 1028.2mb 74f
3:00pm 7 8 mph 1028.6mb 75f
2:00pm 8 9 mph 1029mb 74f
1:00pm 7 9 mph 1029.4mb 74f
12:00pm 8 9 mph 1029.7mb 74f
11:00am 7 8 mph 1029.7mb 74f
10:00am 7 8 mph 1029.7mb 74f
9:00am 6
mph
1029.7mb 74f
8:00am 3 5 mph 1029.4mb 74f
7:00am 5 6 mph 1029.1mb 73f
6:00am 6
mph
1028.7mb 72f
5:00am 7
mph
1028.4mb 72f
4:00am 10
mph
1028mb 72f
3:00am 9
mph
1028.2mb 73f
2:00am 10 11 mph 1028mb 73f